EZS75BQ EGKK-LFSB
Flight info
| Callsign | EZS75BQ |
|---|---|
| Flight time | N/A |
| Altitude | 29000 |
| Route | SFD Y47 BENBO L612 HAWKE UL612 VEULE DCT TEPRI UN491 POGZI DCT GELTA DCT MANAG DCT MOTUK DCT LUL G42 ARPUS |
| Aircraft | A320/M-SDE3FGHIRWY/LB1 |
Departure
| Time | 2026-05-04 14:38 |
|---|---|
| Airport | London Gatwick Airport (EGKK) |
Arrival
| Time | N/A |
|---|---|
| Airport | EuroAirport Basel–Mulhouse–Freiburg (LFSB) |
| Time | Latitude | Longitude | Altitude | Speed | Heading |
|---|---|---|---|---|---|
| 2026-05-04 14:01 | 51.15438 | -0.17705 | 212 ft | 0 kts | 167° |
| 2026-05-04 14:21 | 51.15464 | -0.17714 | 206 ft | 4 kts | 167° |
| 2026-05-04 14:21 | 51.15492 | -0.17729 | 212 ft | 4 kts | 134° |
| 2026-05-04 14:21 | 51.15501 | -0.17750 | 215 ft | 4 kts | 101° |
| 2026-05-04 14:21 | 51.15501 | -0.17791 | 211 ft | 3 kts | 78° |
| 2026-05-04 14:22 | 51.15497 | -0.17821 | 210 ft | 0 kts | 78° |
| 2026-05-04 14:27 | 51.15497 | -0.17820 | 204 ft | 0 kts | 78° |
| 2026-05-04 14:27 | 51.15502 | -0.17783 | 204 ft | 7 kts | 77° |
| 2026-05-04 14:27 | 51.15514 | -0.17695 | 207 ft | 9 kts | 77° |
| 2026-05-04 14:27 | 51.15527 | -0.17600 | 204 ft | 9 kts | 77° |
| 2026-05-04 14:28 | 51.15540 | -0.17498 | 205 ft | 10 kts | 81° |
| 2026-05-04 14:28 | 51.15506 | -0.17425 | 211 ft | 8 kts | 161° |
| 2026-05-04 14:28 | 51.15453 | -0.17405 | 210 ft | 7 kts | 167° |
| 2026-05-04 14:28 | 51.15408 | -0.17390 | 204 ft | 9 kts | 168° |
| 2026-05-04 14:29 | 51.15299 | -0.17446 | 208 ft | 9 kts | 259° |
| 2026-05-04 14:29 | 51.15272 | -0.17650 | 208 ft | 11 kts | 257° |
| 2026-05-04 14:30 | 51.15258 | -0.17756 | 209 ft | 9 kts | 258° |
| 2026-05-04 14:30 | 51.15242 | -0.17871 | 211 ft | 15 kts | 257° |
| 2026-05-04 14:30 | 51.15196 | -0.18212 | 208 ft | 14 kts | 258° |
| 2026-05-04 14:31 | 51.15181 | -0.18359 | 203 ft | 13 kts | 261° |
| 2026-05-04 14:31 | 51.15147 | -0.18607 | 203 ft | 13 kts | 257° |
| 2026-05-04 14:32 | 51.15101 | -0.18941 | 206 ft | 14 kts | 257° |
| 2026-05-04 14:32 | 51.15081 | -0.19082 | 211 ft | 14 kts | 257° |
| 2026-05-04 14:32 | 51.15051 | -0.19245 | 211 ft | 15 kts | 232° |
| 2026-05-04 14:32 | 51.14971 | -0.19283 | 215 ft | 10 kts | 216° |
| 2026-05-04 14:33 | 51.14945 | -0.19402 | 206 ft | 15 kts | 257° |
| 2026-05-04 14:33 | 51.14920 | -0.19594 | 206 ft | 20 kts | 258° |
| 2026-05-04 14:33 | 51.14890 | -0.19805 | 205 ft | 20 kts | 257° |
| 2026-05-04 14:33 | 51.14860 | -0.20019 | 204 ft | 20 kts | 258° |
| 2026-05-04 14:34 | 51.14831 | -0.20236 | 207 ft | 20 kts | 257° |
| 2026-05-04 14:34 | 51.14802 | -0.20444 | 208 ft | 18 kts | 258° |
| 2026-05-04 14:34 | 51.14777 | -0.20629 | 205 ft | 16 kts | 257° |
| 2026-05-04 14:34 | 51.14754 | -0.20796 | 215 ft | 14 kts | 257° |
| 2026-05-04 14:35 | 51.14734 | -0.20938 | 208 ft | 13 kts | 257° |
| 2026-05-04 14:35 | 51.14709 | -0.21117 | 212 ft | 20 kts | 257° |
| 2026-05-04 14:35 | 51.14686 | -0.21283 | 208 ft | 13 kts | 255° |
| 2026-05-04 14:35 | 51.14624 | -0.21329 | 204 ft | 9 kts | 171° |
| 2026-05-04 14:36 | 51.14567 | -0.21302 | 206 ft | 8 kts | 153° |
| 2026-05-04 14:36 | 51.14522 | -0.21225 | 209 ft | 10 kts | 115° |
| 2026-05-04 14:36 | 51.14524 | -0.21139 | 203 ft | 6 kts | 76° |
| 2026-05-04 14:36 | 51.14528 | -0.21108 | 211 ft | 1 kts | 77° |
| 2026-05-04 14:37 | 51.14528 | -0.21107 | 211 ft | 0 kts | 77° |
| 2026-05-04 14:37 | 51.14531 | -0.21085 | 208 ft | 11 kts | 77° |
| 2026-05-04 14:38 | 51.14603 | -0.20559 | 210 ft | 84 kts | 77° |
| 2026-05-04 14:38 | 51.14771 | -0.19339 | 210 ft | 139 kts | 77° |
| 2026-05-04 14:38 | 51.14999 | -0.17628 | 411 ft | 166 kts | 77° |
| 2026-05-04 14:38 | 51.15236 | -0.15851 | 1227 ft | 165 kts | 78° |
| 2026-05-04 14:39 | 51.15488 | -0.14029 | 1794 ft | 177 kts | 78° |
| 2026-05-04 14:39 | 51.15772 | -0.11987 | 2124 ft | 199 kts | 77° |
| 2026-05-04 14:39 | 51.16082 | -0.09751 | 2494 ft | 221 kts | 78° |
| 2026-05-04 14:40 | 51.15060 | -0.05293 | 3801 ft | 246 kts | 147° |
| 2026-05-04 14:40 | 51.13419 | -0.04205 | 4329 ft | 264 kts | 165° |
| 2026-05-04 14:40 | 51.11598 | -0.03614 | 5165 ft | 269 kts | 171° |
| 2026-05-04 14:40 | 51.09738 | -0.03174 | 6066 ft | 272 kts | 172° |
| 2026-05-04 14:41 | 51.07866 | -0.02612 | 6943 ft | 275 kts | 168° |
| 2026-05-04 14:41 | 51.06049 | -0.01905 | 7781 ft | 277 kts | 166° |
| 2026-05-04 14:41 | 51.02306 | -0.00207 | 9500 ft | 283 kts | 164° |
| 2026-05-04 14:42 | 50.98491 | 0.01625 | 11013 ft | 290 kts | 163° |
| 2026-05-04 14:42 | 50.96547 | 0.02561 | 11775 ft | 293 kts | 164° |
| 2026-05-04 14:42 | 50.94588 | 0.03495 | 12534 ft | 296 kts | 164° |
| 2026-05-04 14:43 | 50.92600 | 0.04434 | 13288 ft | 299 kts | 164° |
| 2026-05-04 14:43 | 50.90592 | 0.05377 | 13998 ft | 303 kts | 164° |
| 2026-05-04 14:43 | 50.88585 | 0.06317 | 14664 ft | 305 kts | 164° |
| 2026-05-04 14:43 | 50.86538 | 0.07276 | 15344 ft | 307 kts | 164° |
| 2026-05-04 14:44 | 50.84481 | 0.08242 | 16021 ft | 309 kts | 164° |
| 2026-05-04 14:44 | 50.82411 | 0.09214 | 16692 ft | 312 kts | 164° |
| 2026-05-04 14:44 | 50.80321 | 0.10196 | 17366 ft | 314 kts | 164° |
| 2026-05-04 14:44 | 50.78218 | 0.11173 | 18036 ft | 316 kts | 166° |
| 2026-05-04 14:45 | 50.76035 | 0.11676 | 18637 ft | 318 kts | 179° |
| 2026-05-04 14:45 | 50.73784 | 0.11394 | 18837 ft | 334 kts | 192° |
| 2026-05-04 14:45 | 50.71462 | 0.10539 | 18956 ft | 351 kts | 193° |
| 2026-05-04 14:45 | 50.69038 | 0.09639 | 19160 ft | 364 kts | 193° |
| 2026-05-04 14:46 | 50.66578 | 0.08738 | 19601 ft | 369 kts | 193° |
| 2026-05-04 14:46 | 50.64071 | 0.07831 | 20127 ft | 371 kts | 193° |
| 2026-05-04 14:46 | 50.61545 | 0.06921 | 20639 ft | 374 kts | 193° |
| 2026-05-04 14:46 | 50.59004 | 0.06004 | 21164 ft | 376 kts | 193° |
| 2026-05-04 14:47 | 50.56445 | 0.05085 | 21695 ft | 377 kts | 193° |
| 2026-05-04 14:47 | 50.53880 | 0.04164 | 22219 ft | 379 kts | 193° |
| 2026-05-04 14:47 | 50.51296 | 0.03237 | 22729 ft | 381 kts | 193° |
| 2026-05-04 14:47 | 50.48677 | 0.02526 | 23226 ft | 383 kts | 185° |
| 2026-05-04 14:48 | 50.45994 | 0.02625 | 23690 ft | 387 kts | 173° |
| 2026-05-04 14:48 | 50.43362 | 0.03593 | 24091 ft | 391 kts | 162° |
| 2026-05-04 14:48 | 50.40887 | 0.05412 | 24481 ft | 396 kts | 150° |
| 2026-05-04 14:48 | 50.38580 | 0.07786 | 24862 ft | 399 kts | 148° |
| 2026-05-04 14:49 | 50.36262 | 0.10196 | 25241 ft | 400 kts | 148° |
| 2026-05-04 14:49 | 50.33963 | 0.12579 | 25615 ft | 402 kts | 149° |
| 2026-05-04 14:49 | 50.31622 | 0.14996 | 25995 ft | 404 kts | 149° |
| 2026-05-04 14:49 | 50.29271 | 0.17417 | 26365 ft | 406 kts | 149° |
| 2026-05-04 14:50 | 50.26907 | 0.19845 | 26728 ft | 408 kts | 149° |
| 2026-05-04 14:50 | 50.24526 | 0.22282 | 27094 ft | 410 kts | 149° |
| 2026-05-04 14:50 | 50.22135 | 0.24726 | 27457 ft | 411 kts | 149° |
| 2026-05-04 14:50 | 50.19731 | 0.27181 | 27819 ft | 413 kts | 149° |
| 2026-05-04 14:51 | 50.17328 | 0.29646 | 28222 ft | 414 kts | 149° |
| 2026-05-04 14:51 | 50.14917 | 0.32130 | 28611 ft | 415 kts | 149° |
| 2026-05-04 14:51 | 50.12504 | 0.34616 | 28924 ft | 417 kts | 149° |
| 2026-05-04 14:51 | 50.10102 | 0.37092 | 28987 ft | 407 kts | 149° |
| 2026-05-04 14:52 | 50.05484 | 0.41840 | 28988 ft | 396 kts | 149° |
| 2026-05-04 14:52 | 50.00884 | 0.46534 | 28976 ft | 395 kts | 149° |
| 2026-05-04 14:53 | 49.96285 | 0.51214 | 28974 ft | 395 kts | 149° |
| 2026-05-04 14:53 | 49.91694 | 0.55882 | 28981 ft | 394 kts | 149° |
| 2026-05-04 14:54 | 49.87103 | 0.60546 | 28986 ft | 394 kts | 148° |
| 2026-05-04 14:54 | 49.83111 | 0.66340 | 28985 ft | 398 kts | 135° |
| 2026-05-04 14:55 | 49.79525 | 0.72452 | 28974 ft | 398 kts | 135° |